Time;durP1;ratioP1;P1;durP2;ratioP2;P2;SDS_P1;SDS_P2;PMS_P1;PMS_P2;Temp;Humidity;BMP_temperature;BMP_pressure;BME280_temperature;BME280_humidity;BME280_pressure;Samples;Min_cycle;Max_cycle;Signal;HPM_P1;HPM_P2
2023/10/16 00:01:17;;;;;;;3.80;1.70;;;13.70;80.90;;;;;;5062922;28;20029;-88
2023/10/16 00:03:43;;;;;;;3.42;1.35;;;13.70;80.70;;;;;;5064734;28;20056;-89
2023/10/16 00:06:12;;;;;;;4.10;1.92;;;13.70;81.10;;;;;;5066041;28;20662;-82
2023/10/16 00:08:48;;;;;;;3.25;1.20;;;13.70;80.80;;;;;;5063586;28;20502;-87
2023/10/16 00:11:25;;;;;;;14.38;2.40;;;13.70;81.10;;;;;;5049175;28;20563;-85
2023/10/16 00:13:54;;;;;;;3.28;1.35;;;13.70;81.60;;;;;;5063120;28;20065;-88
2023/10/16 00:16:23;;;;;;;5.55;1.83;;;13.70;81.30;;;;;;5061854;28;20039;-87
2023/10/16 00:18:53;;;;;;;5.28;1.73;;;13.70;80.80;;;;;;5062655;28;20110;-90
2023/10/16 00:21:19;;;;;;;4.60;2.25;;;13.70;81.20;;;;;;5063051;28;20037;-89
2023/10/16 00:23:46;;;;;;;3.40;1.50;;;13.70;81.00;;;;;;5064173;28;20033;-87
2023/10/16 00:26:16;;;;;;;3.75;1.65;;;13.60;81.00;;;;;;5062251;28;20048;-88
2023/10/16 00:29:01;;;;;;;4.10;1.92;;;13.60;80.80;;;;;;5062085;28;20039;-84
2023/10/16 00:31:32;;;;;;;4.63;1.38;;;13.60;80.60;;;;;;5077650;28;20640;-87
2023/10/16 00:33:59;;;;;;;3.35;1.95;;;13.60;80.80;;;;;;5065182;28;20025;-90
2023/10/16 00:36:25;;;;;;;2.80;1.35;;;13.60;81.00;;;;;;5061503;28;20402;-86
2023/10/16 00:38:51;;;;;;;6.03;1.60;;;13.60;81.20;;;;;;5064530;28;20039;-89
2023/10/16 00:41:23;;;;;;;4.90;1.83;;;13.60;81.20;;;;;;5050047;28;20033;-90
2023/10/16 00:43:49;;;;;;;3.85;1.52;;;13.60;80.80;;;;;;5063005;28;20772;-84
2023/10/16 00:46:30;;;;;;;2.70;1.30;;;13.50;81.00;;;;;;5072090;28;20072;-83
2023/10/16 00:48:56;;;;;;;4.65;1.38;;;13.60;80.50;;;;;;5073372;28;20067;-87
2023/10/16 00:51:23;;;;;;;2.90;1.17;;;13.50;80.60;;;;;;5060971;28;20401;-84
2023/10/16 00:53:49;;;;;;;8.50;2.13;;;13.50;80.70;;;;;;5065742;28;20753;-83
2023/10/16 00:56:18;;;;;;;3.05;1.40;;;13.50;80.60;;;;;;5062593;28;20505;-84
2023/10/16 00:58:48;;;;;;;3.45;1.40;;;13.50;80.60;;;;;;5062259;28;20422;-82
2023/10/16 01:01:14;;;;;;;5.18;1.80;;;13.50;80.50;;;;;;5059894;28;20398;-84
2023/10/16 01:03:42;;;;;;;4.38;1.38;;;13.50;80.70;;;;;;5031824;28;20040;-83
2023/10/16 01:06:16;;;;;;;2.95;1.67;;;13.50;81.60;;;;;;5061337;28;20078;-81
2023/10/16 01:08:46;;;;;;;3.10;1.73;;;13.50;81.20;;;;;;5062249;28;20469;-83
2023/10/16 01:11:15;;;;;;;4.30;1.70;;;13.50;80.90;;;;;;5065165;28;20863;-80
2023/10/16 01:13:42;;;;;;;3.08;1.17;;;13.50;81.50;;;;;;5062734;28;20036;-83
2023/10/16 01:16:09;;;;;;;6.90;1.52;;;13.50;81.80;;;;;;5060525;28;20097;-83
2023/10/16 01:18:37;;;;;;;3.80;1.55;;;13.50;81.70;;;;;;5060112;28;20036;-82
2023/10/16 01:21:05;;;;;;;4.05;1.60;;;13.50;82.80;;;;;;5061383;28;20463;-81
2023/10/16 01:23:34;;;;;;;5.13;1.42;;;13.50;82.10;;;;;;5061718;28;20499;-82
2023/10/16 01:26:01;;;;;;;2.50;1.63;;;13.50;81.90;;;;;;5060771;28;20332;-81
2023/10/16 01:28:27;;;;;;;6.55;1.85;;;13.50;81.80;;;;;;5060388;28;20060;-83
2023/10/16 01:30:54;;;;;;;4.03;1.60;;;13.50;82.20;;;;;;5060584;28;20033;-84
2023/10/16 01:33:23;;;;;;;5.25;1.85;;;13.50;82.10;;;;;;5058641;28;20493;-80
2023/10/16 01:35:52;;;;;;;3.72;1.45;;;13.50;82.10;;;;;;5087132;28;20036;-81
2023/10/16 01:38:19;;;;;;;3.55;1.17;;;13.50;82.00;;;;;;5064913;28;20048;-84
2023/10/16 01:40:47;;;;;;;5.57;1.75;;;13.50;82.00;;;;;;5062345;28;20050;-81
2023/10/16 01:43:16;;;;;;;6.40;1.85;;;13.50;82.50;;;;;;5047848;28;20624;-82
2023/10/16 01:45:52;;;;;;;3.83;2.05;;;13.50;82.40;;;;;;5061491;28;20048;-82
2023/10/16 01:48:21;;;;;;;4.32;1.80;;;13.50;82.50;;;;;;5085808;28;20525;-82
2023/10/16 01:50:49;;;;;;;3.42;1.58;;;13.50;82.60;;;;;;5087333;28;20381;-83
2023/10/16 01:53:21;;;;;;;2.97;1.52;;;13.50;83.00;;;;;;5061703;28;20028;-79
2023/10/16 01:55:51;;;;;;;3.17;1.48;;;13.50;83.20;;;;;;5061931;28;20048;-83
2023/10/16 01:58:18;;;;;;;5.63;1.83;;;13.40;82.80;;;;;;5060611;28;20049;-85
2023/10/16 02:00:45;;;;;;;4.03;1.63;;;13.40;83.00;;;;;;5062755;28;20504;-84
2023/10/16 02:03:11;;;;;;;5.78;2.10;;;13.50;82.60;;;;;;5066794;28;20468;-80
2023/10/16 02:05:41;;;;;;;5.57;1.77;;;13.40;83.00;;;;;;5062072;28;20039;-84
2023/10/16 02:08:08;;;;;;;4.82;1.77;;;13.40;83.10;;;;;;5088651;28;20037;-83
2023/10/16 02:10:33;;;;;;;5.45;1.80;;;13.40;83.40;;;;;;5065704;28;20054;-79
2023/10/16 02:12:59;;;;;;;4.32;1.67;;;13.50;82.90;;;;;;5071911;28;20092;-82
2023/10/16 02:15:25;;;;;;;5.88;1.50;;;13.40;82.80;;;;;;5082426;28;20051;-79
2023/10/16 02:17:53;;;;;;;3.65;1.67;;;13.40;83.20;;;;;;5080861;28;20147;-78
2023/10/16 02:20:19;;;;;;;4.72;1.70;;;13.40;83.20;;;;;;5080375;28;20068;-83
2023/10/16 02:22:45;;;;;;;7.03;1.50;;;13.40;82.90;;;;;;5083216;28;20054;-81
2023/10/16 02:25:11;;;;;;;4.15;1.75;;;13.40;83.20;;;;;;5057146;28;20033;-82
2023/10/16 02:27:37;;;;;;;5.50;1.80;;;13.40;83.30;;;;;;5061640;28;20565;-81
2023/10/16 02:35:48;;;;;;;4.38;1.80;;;13.40;83.10;;;;;;4984924;28;20041;-83
2023/10/16 02:38:23;;;;;;;6.93;1.60;;;13.40;82.90;;;;;;4969843;28;20535;-81
2023/10/16 02:40:52;;;;;;;5.55;1.65;;;13.40;83.10;;;;;;5003497;28;20140;-81
2023/10/16 02:43:20;;;;;;;3.03;1.60;;;13.40;83.10;;;;;;5001334;28;20034;-82
2023/10/16 02:45:51;;;;;;;2.33;1.23;;;13.40;83.00;;;;;;4980762;28;20436;-79
2023/10/16 02:48:19;;;;;;;4.30;1.40;;;13.40;83.40;;;;;;4985510;28;20843;-79
2023/10/16 02:50:56;;;;;;;3.85;1.50;;;13.30;83.10;;;;;;4986374;28;20499;-77
2023/10/16 02:53:25;;;;;;;4.13;1.60;;;13.40;83.10;;;;;;4979682;28;20170;-81
2023/10/16 02:56:05;;;;;;;7.60;1.52;;;13.40;83.70;;;;;;4971264;28;20034;-83
2023/10/16 02:58:32;;;;;;;4.50;1.70;;;13.30;83.60;;;;;;5001235;28;20068;-82
2023/10/16 03:00:59;;;;;;;4.85;1.60;;;13.40;84.30;;;;;;4994439;28;20106;-80
2023/10/16 03:03:26;;;;;;;3.72;1.88;;;13.30;83.30;;;;;;5028226;28;20042;-77
2023/10/16 03:05:55;;;;;;;4.15;1.55;;;13.40;83.30;;;;;;5028687;28;20049;-81
2023/10/16 03:08:22;;;;;;;5.05;2.20;;;13.30;83.20;;;;;;5050733;28;20041;-81
2023/10/16 03:10:51;;;;;;;4.72;1.70;;;13.30;83.70;;;;;;5084459;28;20037;-83
2023/10/16 03:13:18;;;;;;;3.35;1.63;;;13.40;83.40;;;;;;5061556;28;20170;-84
2023/10/16 03:15:46;;;;;;;4.97;1.73;;;13.30;83.10;;;;;;5059754;28;20086;-82
2023/10/16 03:18:22;;;;;;;5.25;1.73;;;13.40;82.70;;;;;;5059060;28;20032;-81
2023/10/16 03:21:01;;;;;;;3.10;1.75;;;13.30;83.00;;;;;;5078683;28;20037;-83
2023/10/16 03:23:28;;;;;;;4.05;1.52;;;13.30;83.00;;;;;;5074726;28;20032;-82
2023/10/16 03:25:56;;;;;;;3.58;1.63;;;13.30;83.00;;;;;;5049529;28;20028;-84
2023/10/16 03:28:22;;;;;;;2.72;1.35;;;13.30;83.10;;;;;;5064651;28;20103;-84
2023/10/16 03:30:49;;;;;;;5.30;1.95;;;13.30;82.50;;;;;;5064272;28;20029;-82
2023/10/16 03:33:15;;;;;;;4.80;1.75;;;13.30;82.50;;;;;;5063143;28;20074;-83
2023/10/16 03:35:45;;;;;;;4.57;1.45;;;13.30;82.50;;;;;;5065012;28;20032;-82
2023/10/16 03:38:12;;;;;;;5.00;1.70;;;13.30;82.60;;;;;;5062342;28;20676;-83
2023/10/16 03:40:38;;;;;;;7.30;1.52;;;13.30;82.50;;;;;;5064193;28;20032;-82
2023/10/16 03:43:04;;;;;;;4.13;1.50;;;13.30;82.40;;;;;;5062927;28;20035;-85
2023/10/16 03:45:31;;;;;;;3.17;1.50;;;13.30;82.30;;;;;;5061872;28;20123;-87
2023/10/16 03:47:58;;;;;;;3.10;1.48;;;13.30;81.80;;;;;;5063550;28;21140;-86
2023/10/16 03:50:26;;;;;;;4.30;1.70;;;13.30;81.70;;;;;;5051090;28;20068;-84
2023/10/16 03:52:55;;;;;;;4.78;1.55;;;13.30;81.70;;;;;;5062067;28;20039;-86
2023/10/16 03:55:25;;;;;;;5.00;2.30;;;13.30;81.90;;;;;;5064166;28;20074;-84
2023/10/16 03:57:52;;;;;;;5.10;1.58;;;13.30;82.10;;;;;;5063730;28;20037;-84
2023/10/16 04:00:25;;;;;;;3.38;1.48;;;13.30;82.10;;;;;;5064938;28;20131;-85
2023/10/16 04:02:51;;;;;;;4.95;1.90;;;13.30;81.80;;;;;;5092275;28;20078;-85
2023/10/16 04:08:03;;;;;;;3.72;1.73;;;13.30;81.80;;;;;;5064240;28;20502;-78
2023/10/16 04:10:30;;;;;;;4.05;1.48;;;13.30;82.20;;;;;;5063524;28;20062;-81
2023/10/16 04:12:57;;;;;;;6.05;1.83;;;13.20;81.90;;;;;;5043281;28;20215;-79
2023/10/16 04:20:56;;;;;;;5.90;2.00;;;13.30;81.90;;;;;;5062469;28;20535;-80
2023/10/16 04:29:45;;;;;;;5.70;2.00;;;13.20;82.80;;;;;;5088932;28;20434;-80
2023/10/16 04:31:45;;;;;;;8.77;2.47;;;13.20;83.50;;;;;;5050714;28;20086;-80
2023/10/16 04:34:25;;;;;;;5.07;2.00;;;13.20;83.40;;;;;;5063401;28;20033;-79
2023/10/16 04:43:08;;;;;;;5.10;2.10;;;13.20;82.70;;;;;;5048457;28;20044;-76
2023/10/16 04:50:49;;;;;;;5.63;1.85;;;13.20;84.70;;;;;;5061994;28;20037;-75
2023/10/16 04:53:21;;;;;;;6.78;2.10;;;13.30;85.40;;;;;;5086487;28;20064;-76
2023/10/16 05:03:35;;;;;;;4.32;1.90;;;13.30;83.40;;;;;;5043496;28;20440;-75
2023/10/16 05:13:17;;;;;;;6.20;1.75;;;13.30;84.10;;;;;;5039398;28;20051;-75
2023/10/16 05:15:20;;;;;;;4.68;1.60;;;13.30;83.60;;;;;;5040276;28;20041;-75
2023/10/16 06:14:34;;;;;;;5.50;1.95;;;13.40;84.90;;;;;;5075669;28;20446;-76
2023/10/16 06:17:12;;;;;;;9.93;1.92;;;13.40;85.30;;;;;;5061091;28;20033;-80
2023/10/16 06:19:42;;;;;;;5.18;2.30;;;13.40;85.80;;;;;;5061709;28;20195;-78
2023/10/16 06:22:09;;;;;;;5.72;1.83;;;13.40;85.20;;;;;;5060222;28;21390;-78
2023/10/16 06:24:35;;;;;;;3.35;1.35;;;13.50;85.30;;;;;;5058944;28;20041;-78
2023/10/16 06:27:10;;;;;;;4.45;1.70;;;13.40;85.30;;;;;;5043334;28;20025;-78
2023/10/16 06:29:49;;;;;;;5.10;1.77;;;13.40;85.80;;;;;;5060808;28;20028;-78
2023/10/16 06:32:22;;;;;;;3.92;2.20;;;13.40;85.10;;;;;;5041302;28;20102;-78
2023/10/16 06:35:02;;;;;;;5.72;2.13;;;13.40;84.90;;;;;;5058442;28;20044;-78
2023/10/16 06:37:33;;;;;;;7.45;2.42;;;13.50;84.80;;;;;;5075567;28;20128;-78
2023/10/16 06:40:01;;;;;;;4.20;2.20;;;13.50;84.70;;;;;;5046657;28;20086;-78
2023/10/16 06:42:27;;;;;;;4.80;2.30;;;13.40;84.90;;;;;;5059188;28;20037;-77
2023/10/16 06:44:54;;;;;;;5.18;2.53;;;13.50;85.10;;;;;;5062319;28;20036;-78
2023/10/16 06:47:34;;;;;;;5.97;2.42;;;13.50;84.80;;;;;;5046607;28;20043;-77
2023/10/16 06:52:51;;;;;;;8.55;2.25;;;13.40;84.40;;;;;;5059048;28;20075;-77
2023/10/16 06:55:17;;;;;;;7.28;2.55;;;13.50;84.80;;;;;;5059469;28;20095;-78
2023/10/16 06:57:44;;;;;;;3.42;1.73;;;13.50;84.60;;;;;;5059269;28;20144;-79
2023/10/16 07:00:22;;;;;;;3.95;2.28;;;13.50;84.80;;;;;;5060238;28;20086;-78
2023/10/16 07:02:54;;;;;;;4.32;2.20;;;13.50;85.00;;;;;;5062705;28;20479;-78
2023/10/16 07:05:24;;;;;;;9.18;2.75;;;13.50;84.90;;;;;;5062130;28;20082;-80
2023/10/16 07:07:56;;;;;;;6.97;2.20;;;13.50;84.50;;;;;;5058400;28;20040;-80
2023/10/16 07:10:23;;;;;;;8.63;2.67;;;13.50;84.80;;;;;;5058891;28;20037;-80
2023/10/16 07:13:02;;;;;;;8.85;2.80;;;13.50;84.60;;;;;;5059299;28;20031;-79
2023/10/16 07:15:29;;;;;;;7.35;2.08;;;13.50;83.90;;;;;;5059151;28;20033;-78
2023/10/16 07:18:05;;;;;;;6.05;2.60;;;13.50;84.00;;;;;;5054851;28;20024;-80
2023/10/16 07:20:34;;;;;;;6.55;2.83;;;13.50;84.70;;;;;;5061488;28;20050;-79
2023/10/16 07:23:00;;;;;;;3.85;2.08;;;13.50;84.20;;;;;;5057770;28;20082;-79
2023/10/16 07:26:09;;;;;;;5.97;2.70;;;13.40;84.40;;;;;;5060476;28;20028;-78
2023/10/16 07:28:18;;;;;;;4.63;2.42;;;13.40;84.40;;;;;;5052988;28;20437;-81
2023/10/16 07:30:44;;;;;;;5.10;2.55;;;13.50;84.10;;;;;;5058803;28;20036;-79
2023/10/16 07:33:14;;;;;;;4.25;2.30;;;13.40;84.20;;;;;;5059875;28;20132;-79
2023/10/16 07:36:08;;;;;;;4.70;2.63;;;13.50;84.00;;;;;;5073414;28;20025;-80
2023/10/16 07:38:38;;;;;;;4.10;2.10;;;13.50;84.40;;;;;;5059365;28;20518;-81
2023/10/16 07:41:09;;;;;;;5.50;2.40;;;13.50;84.50;;;;;;5058715;28;20032;-77
2023/10/16 07:43:36;;;;;;;5.00;2.20;;;13.50;83.90;;;;;;5051198;28;20037;-79
2023/10/16 07:48:46;;;;;;;5.95;2.15;;;13.40;84.60;;;;;;5085661;28;20037;-81
2023/10/16 07:51:15;;;;;;;5.28;1.92;;;13.50;84.00;;;;;;5046586;28;20072;-79
2023/10/16 07:53:41;;;;;;;7.07;2.20;;;13.40;83.80;;;;;;5075526;28;20083;-80
2023/10/16 07:59:07;;;;;;;5.68;2.40;;;13.50;84.10;;;;;;5046993;28;20402;-84
2023/10/16 08:01:43;;;;;;;5.70;2.10;;;13.40;84.20;;;;;;5056319;28;20029;-85
2023/10/16 08:04:27;;;;;;;4.85;2.30;;;13.40;84.20;;;;;;5057083;28;20057;-85
2023/10/16 08:08:00;;;;;;;5.90;2.30;;;13.40;83.80;;;;;;5041570;28;20078;-82
2023/10/16 08:12:21;;;;;;;3.63;1.73;;;13.40;84.10;;;;;;5048566;28;20036;-82
2023/10/16 08:14:54;;;;;;;4.38;1.80;;;13.40;84.10;;;;;;5034976;28;20052;-82
2023/10/16 08:17:23;;;;;;;5.78;2.00;;;13.40;84.20;;;;;;5049676;28;20133;-82
2023/10/16 08:19:50;;;;;;;4.32;1.90;;;13.40;84.00;;;;;;5057892;28;20060;-81
2023/10/16 08:22:16;;;;;;;2.67;1.80;;;13.40;84.20;;;;;;5045707;28;20036;-81
2023/10/16 08:24:59;;;;;;;4.13;2.20;;;13.40;84.30;;;;;;5062015;28;20033;-81
2023/10/16 08:32:53;;;;;;;4.75;2.70;;;13.40;84.80;;;;;;5063925;28;20028;-82
2023/10/16 08:35:19;;;;;;;5.53;2.53;;;13.40;84.50;;;;;;5048301;28;20041;-80
2023/10/16 08:37:57;;;;;;;4.30;2.30;;;13.40;84.10;;;;;;5035147;28;20051;-81
2023/10/16 08:40:32;;;;;;;3.53;2.28;;;13.40;84.30;;;;;;5050487;28;20102;-80
2023/10/16 08:43:01;;;;;;;7.22;2.70;;;13.40;84.10;;;;;;5022026;28;20033;-80
2023/10/16 08:45:33;;;;;;;4.28;2.42;;;13.40;83.40;;;;;;5033957;28;20760;-84
2023/10/16 08:48:05;;;;;;;4.85;2.67;;;13.40;84.00;;;;;;5060355;28;20131;-82
2023/10/16 08:50:42;;;;;;;3.58;2.60;;;13.40;84.40;;;;;;5065292;28;20051;-81
2023/10/16 08:56:26;;;;;;;4.85;2.53;;;13.40;84.00;;;;;;5052311;28;20102;-82
2023/10/16 09:06:40;;;;;;;3.50;2.22;;;13.30;83.70;;;;;;4964929;28;20038;-90
2023/10/16 09:12:26;;;;;;;9.18;2.28;;;13.50;91.40;;;;;;4985590;28;20044;-88
2023/10/16 09:15:06;;;;;;;11.82;2.80;;;13.70;92.70;;;;;;4987950;28;20522;-79
2023/10/16 09:17:35;;;;;;;6.70;1.90;;;13.90;92.80;;;;;;4943724;28;20133;-79
2023/10/16 09:20:17;;;;;;;7.63;2.28;;;14.00;92.50;;;;;;4987169;28;20046;-79
2023/10/16 09:22:49;;;;;;;3.60;2.13;;;13.90;91.20;;;;;;4978977;28;20038;-79
2023/10/16 09:25:22;;;;;;;4.32;2.13;;;13.90;90.10;;;;;;4967050;28;20027;-79
2023/10/16 09:28:08;;;;;;;4.32;1.90;;;13.90;89.50;;;;;;4972209;28;20065;-78
2023/10/16 09:30:42;;;;;;;3.38;2.00;;;13.90;87.70;;;;;;4995769;28;20049;-79
2023/10/16 09:33:14;;;;;;;4.60;1.77;;;13.90;87.10;;;;;;4964742;28;20068;-90
2023/10/16 09:35:59;;;;;;;4.47;1.98;;;13.90;89.70;;;;;;4964160;28;20121;-92
2023/10/16 09:39:30;;;;;;;3.22;1.63;;;14.00;92.10;;;;;;4906031;29;20074;-92
2023/10/16 09:41:59;;;;;;;3.72;1.58;;;14.20;93.00;;;;;;4906745;29;20070;-79
2023/10/16 09:44:39;;;;;;;3.65;1.90;;;14.30;92.60;;;;;;4898014;29;20039;-78
2023/10/16 09:47:25;;;;;;;4.63;2.13;;;14.30;91.90;;;;;;4943407;28;20027;-77
2023/10/16 09:50:01;;;;;;;;;;;14.30;90.80;;;;;;4893088;29;20051;-78
2023/10/16 09:52:33;;;;;;;3.13;1.75;;;14.30;89.70;;;;;;4911561;29;19918;-78
2023/10/16 09:55:12;;;;;;;3.70;2.05;;;14.20;88.70;;;;;;4932393;29;20043;-77
2023/10/16 09:57:55;;;;;;;9.90;2.03;;;14.20;87.80;;;;;;4912407;29;20039;-77
2023/10/16 10:00:46;;;;;;;6.60;2.13;;;14.20;86.80;;;;;;4904484;29;20115;-78
2023/10/16 10:03:16;;;;;;;3.67;1.80;;;14.20;86.10;;;;;;4914313;28;20039;-78
2023/10/16 10:05:49;;;;;;;3.65;1.95;;;14.10;85.30;;;;;;4902853;29;20063;-76
2023/10/16 10:08:27;;;;;;;4.07;1.90;;;14.10;85.50;;;;;;4899946;29;20035;-77
2023/10/16 10:11:17;;;;;;;3.08;1.55;;;14.10;85.10;;;;;;4920089;28;20039;-78
2023/10/16 10:14:09;;;;;;;3.30;1.50;;;14.00;85.60;;;;;;4910154;29;20106;-77
2023/10/16 10:17:06;;;;;;;2.55;1.83;;;14.00;84.70;;;;;;5052547;28;20507;-77
2023/10/16 10:19:46;;;;;;;2.85;2.03;;;14.00;84.40;;;;;;5055773;28;20028;-76
2023/10/16 10:22:22;;;;;;;3.63;2.03;;;13.90;84.30;;;;;;5043712;28;20024;-78
2023/10/16 10:25:08;;;;;;;2.65;1.70;;;13.90;84.30;;;;;;5043851;28;20033;-79
2023/10/16 10:27:53;;;;;;;3.03;1.80;;;13.90;84.30;;;;;;5042957;28;20029;-78
2023/10/16 10:30:38;;;;;;;4.93;2.00;;;13.90;84.30;;;;;;5034794;28;20044;-79
2023/10/16 10:33:27;;;;;;;4.57;1.88;;;13.90;84.40;;;;;;5050159;28;20040;-80
2023/10/16 10:36:58;;;;;;;4.10;2.20;;;13.90;84.10;;;;;;5031366;28;20454;-80
2023/10/16 10:39:57;;;;;;;3.97;2.08;;;13.80;84.40;;;;;;5036411;28;20036;-79
2023/10/16 10:43:11;;;;;;;3.45;2.10;;;13.80;84.30;;;;;;5027223;28;20032;-79
2023/10/16 10:47:06;;;;;;;3.13;1.95;;;13.80;84.40;;;;;;5041249;28;20078;-79
2023/10/16 10:50:21;;;;;;;2.75;2.05;;;13.80;84.60;;;;;;4956907;28;20057;-79
2023/10/16 10:54:20;;;;;;;;;;;;;;;;;;;;;
2023/10/16 10:58:11;;;;;;;3.42;2.33;;;13.70;84.40;;;;;;4940384;28;20097;-78
2023/10/16 11:01:40;;;;;;;;;;;;;;;;;;;;;
2023/10/16 11:04:35;;;;;;;5.20;2.80;;;13.70;84.70;;;;;;4930135;28;20141;-79
2023/10/16 11:12:09;;;;;;;3.13;2.25;;;13.70;84.70;;;;;;4908214;29;20207;-78
2023/10/16 11:15:23;;;;;;;2.47;2.03;;;13.60;85.00;;;;;;4854676;29;20077;-80
2023/10/16 11:18:32;;;;;;;3.97;2.40;;;13.60;85.30;;;;;;4891866;29;20040;-79
2023/10/16 11:21:25;;;;;;;3.88;2.13;;;13.60;85.30;;;;;;4931670;28;20040;-80
2023/10/16 11:32:26;;;;;;;;;;;;;;;;;;;;;
2023/10/16 12:02:12;;;;;;;4.07;2.17;;;13.60;85.00;;;;;;5034987;27;20499;-79
2023/10/16 12:05:27;;;;;;;4.82;2.20;;;13.50;85.40;;;;;;5017179;28;20406;-81
2023/10/16 12:08:07;;;;;;;4.00;2.17;;;13.50;84.80;;;;;;4999429;28;20163;-80
2023/10/16 12:10:52;;;;;;;3.00;2.20;;;13.50;84.70;;;;;;5016614;28;20041;-80
2023/10/16 12:13:29;;;;;;;4.15;2.25;;;13.50;84.40;;;;;;5017946;28;20119;-79
2023/10/16 12:15:58;;;;;;;3.63;2.67;;;13.50;84.70;;;;;;5021660;28;20389;-79
2023/10/16 12:18:27;;;;;;;4.22;2.08;;;13.50;84.30;;;;;;5007581;28;20092;-82
2023/10/16 12:20:54;;;;;;;2.95;2.30;;;13.50;84.50;;;;;;5002005;28;20025;-79
2023/10/16 12:23:20;;;;;;;2.83;2.38;;;13.40;84.40;;;;;;4995818;28;21135;-79
2023/10/16 12:25:47;;;;;;;4.47;2.40;;;13.40;84.70;;;;;;5022409;28;20034;-78
2023/10/16 12:28:14;;;;;;;9.18;5.80;;;13.50;84.60;;;;;;5022882;28;20041;-77
2023/10/16 12:30:40;;;;;;;11.57;8.27;;;13.40;84.70;;;;;;5017794;28;20073;-76
2023/10/16 12:33:07;;;;;;;9.25;6.32;;;13.40;84.90;;;;;;4997965;28;20064;-79
2023/10/16 12:35:36;;;;;;;9.93;5.68;;;13.40;84.90;;;;;;4985824;28;20029;-78
2023/10/16 12:38:07;;;;;;;8.05;5.03;;;13.40;84.90;;;;;;5014979;28;20038;-78
2023/10/16 12:40:39;;;;;;;5.78;4.32;;;13.40;85.00;;;;;;5025852;28;20049;-79
2023/10/16 12:43:09;;;;;;;5.93;3.90;;;13.40;84.70;;;;;;4991322;28;20038;-78
2023/10/16 12:45:37;;;;;;;5.50;3.70;;;13.40;84.70;;;;;;5012010;28;20034;-78
2023/10/16 12:48:04;;;;;;;5.28;3.72;;;13.40;84.70;;;;;;5009096;28;20770;-78
2023/10/16 12:50:30;;;;;;;9.50;6.60;;;13.40;84.70;;;;;;5008229;28;20541;-79
2023/10/16 12:52:58;;;;;;;9.18;5.93;;;13.40;84.70;;;;;;5009759;28;20176;-78
2023/10/16 12:55:25;;;;;;;8.07;5.50;;;13.40;84.80;;;;;;5007469;28;20038;-79
2023/10/16 12:57:51;;;;;;;8.35;5.07;;;13.40;84.90;;;;;;5008143;28;20206;-79
2023/10/16 13:00:19;;;;;;;6.85;4.65;;;13.40;84.90;;;;;;5008132;28;20054;-79
2023/10/16 13:02:46;;;;;;;5.45;4.20;;;13.40;85.10;;;;;;4995596;28;20037;-80
2023/10/16 13:05:13;;;;;;;6.50;3.65;;;13.40;85.20;;;;;;4993997;28;20041;-78
2023/10/16 13:07:48;;;;;;;6.50;3.92;;;13.40;85.10;;;;;;4995028;28;20034;-79
2023/10/16 13:10:20;;;;;;;4.60;3.28;;;13.40;85.10;;;;;;4993784;28;20042;-79
2023/10/16 13:12:47;;;;;;;5.80;3.53;;;13.40;85.00;;;;;;4995977;28;20484;-81
2023/10/16 13:15:16;;;;;;;5.30;3.30;;;13.40;85.10;;;;;;4993093;28;20723;-80
2023/10/16 13:17:44;;;;;;;4.93;3.30;;;13.40;85.00;;;;;;5010591;28;20030;-79
2023/10/16 13:20:20;;;;;;;5.65;3.22;;;13.40;85.10;;;;;;5008858;28;20035;-80
2023/10/16 13:22:52;;;;;;;4.47;2.72;;;13.40;85.20;;;;;;5010078;28;20096;-80
2023/10/16 13:25:22;;;;;;;5.15;2.85;;;13.40;85.20;;;;;;4995098;28;20034;-79
2023/10/16 13:27:49;;;;;;;3.80;2.75;;;13.40;85.20;;;;;;4994238;28;20056;-78
2023/10/16 13:30:17;;;;;;;6.07;2.90;;;13.40;85.20;;;;;;5009840;28;20716;-79
2023/10/16 13:32:46;;;;;;;3.72;2.30;;;13.40;85.10;;;;;;4995629;28;20037;-79
2023/10/16 13:35:13;;;;;;;4.47;2.75;;;13.40;84.90;;;;;;4995156;28;20515;-79
2023/10/16 13:37:43;;;;;;;5.07;2.80;;;13.40;84.90;;;;;;5010085;28;20413;-80
2023/10/16 13:40:20;;;;;;;3.92;2.45;;;13.40;85.00;;;;;;4994576;28;20883;-79
2023/10/16 13:43:00;;;;;;;3.85;2.60;;;13.40;85.00;;;;;;4994052;28;20038;-79
2023/10/16 13:45:27;;;;;;;6.40;3.33;;;13.40;84.90;;;;;;4995175;28;20049;-79
2023/10/16 13:47:55;;;;;;;4.43;2.45;;;13.40;85.00;;;;;;4985532;28;20549;-79
2023/10/16 13:50:25;;;;;;;3.03;2.40;;;13.40;85.30;;;;;;4997568;28;20077;-80
2023/10/16 13:52:52;;;;;;;5.07;2.83;;;13.40;85.20;;;;;;5003713;28;20417;-81
2023/10/16 13:55:21;;;;;;;4.30;3.03;;;13.30;85.30;;;;;;4996051;28;20034;-81
2023/10/16 13:57:49;;;;;;;6.63;3.00;;;13.30;85.30;;;;;;4996774;28;20038;-80
2023/10/16 14:00:29;;;;;;;5.43;3.05;;;13.40;85.30;;;;;;4993775;28;20114;-78
2023/10/16 14:03:16;;;;;;;5.53;2.95;;;13.30;85.30;;;;;;4999370;28;20045;-81
2023/10/16 14:05:47;;;;;;;6.60;3.92;;;13.40;85.50;;;;;;5009770;28;20034;-78
2023/10/16 14:08:30;;;;;;;5.05;4.13;;;13.40;85.50;;;;;;4994006;28;20045;-81
2023/10/16 14:11:00;;;;;;;5.32;3.90;;;13.30;85.50;;;;;;4986405;28;20046;-79
2023/10/16 14:13:27;;;;;;;6.68;3.42;;;13.40;85.70;;;;;;4997133;28;20037;-79
2023/10/16 14:16:09;;;;;;;5.53;3.47;;;13.40;85.90;;;;;;4995223;28;20038;-80
2023/10/16 14:18:35;;;;;;;5.70;2.80;;;13.30;85.90;;;;;;4998583;28;20034;-80
2023/10/16 14:21:08;;;;;;;4.35;2.78;;;13.40;85.90;;;;;;4999229;28;20103;-79
2023/10/16 14:23:35;;;;;;;5.15;3.05;;;13.30;86.10;;;;;;5010014;28;20260;-80
2023/10/16 14:26:01;;;;;;;5.60;2.90;;;13.30;86.10;;;;;;4996802;28;20123;-80
2023/10/16 14:28:34;;;;;;;3.47;2.63;;;13.30;86.10;;;;;;4990641;28;20141;-79
2023/10/16 14:31:02;;;;;;;4.63;2.47;;;13.30;86.10;;;;;;4996205;28;20080;-80
2023/10/16 14:33:30;;;;;;;5.10;3.00;;;13.40;86.00;;;;;;4997557;28;20135;-80
2023/10/16 14:36:00;;;;;;;7.07;2.40;;;13.30;86.00;;;;;;5012288;28;20034;-81
2023/10/16 14:38:27;;;;;;;4.05;2.47;;;13.30;86.10;;;;;;4996878;28;20040;-81
2023/10/16 14:41:08;;;;;;;4.90;2.50;;;13.30;86.20;;;;;;5000425;28;20039;-80
2023/10/16 14:43:38;;;;;;;3.92;2.70;;;13.30;86.10;;;;;;4991080;28;20049;-81
2023/10/16 14:46:07;;;;;;;3.30;2.20;;;13.30;86.10;;;;;;4995724;28;20065;-80
2023/10/16 14:48:33;;;;;;;5.65;2.35;;;13.30;86.00;;;;;;4996648;28;20034;-80
2023/10/16 14:51:00;;;;;;;3.83;2.05;;;13.30;85.90;;;;;;4996800;28;20058;-78
2023/10/16 14:53:28;;;;;;;3.63;2.50;;;13.30;85.80;;;;;;4996203;28;20116;-80
2023/10/16 14:55:54;;;;;;;3.67;2.30;;;13.30;85.60;;;;;;4995869;28;20500;-80
2023/10/16 14:58:20;;;;;;;4.18;2.00;;;13.30;85.70;;;;;;5011638;28;20435;-78
2023/10/16 15:00:56;;;;;;;3.25;2.20;;;13.30;85.40;;;;;;4995350;28;20153;-80
2023/10/16 15:03:22;;;;;;;4.65;2.40;;;13.30;85.60;;;;;;4996705;28;20034;-80
2023/10/16 15:05:49;;;;;;;4.03;2.05;;;13.30;85.50;;;;;;4998499;28;20120;-80
2023/10/16 15:08:18;;;;;;;3.65;1.80;;;13.30;85.60;;;;;;4994422;28;20044;-77
2023/10/16 15:10:47;;;;;;;2.33;1.92;;;13.30;85.60;;;;;;4998022;28;20069;-80
2023/10/16 15:13:17;;;;;;;3.83;1.88;;;13.30;85.80;;;;;;4995800;28;20476;-81
2023/10/16 15:15:45;;;;;;;3.83;2.05;;;13.30;85.70;;;;;;4995263;28;20061;-79
2023/10/16 15:18:13;;;;;;;2.50;1.85;;;13.30;85.50;;;;;;4995338;28;20033;-80
2023/10/16 15:20:40;;;;;;;3.00;1.88;;;13.30;85.10;;;;;;5010701;28;20121;-81
2023/10/16 15:23:11;;;;;;;4.15;2.10;;;13.30;85.20;;;;;;4994129;28;20170;-78
2023/10/16 15:25:44;;;;;;;4.03;1.88;;;13.30;87.40;;;;;;4994180;28;20054;-81
2023/10/16 15:28:10;;;;;;;5.05;1.92;;;13.30;87.10;;;;;;4994768;28;20413;-78
2023/10/16 15:30:42;;;;;;;4.03;2.22;;;13.30;86.40;;;;;;5009139;28;20043;-78
2023/10/16 15:33:09;;;;;;;3.28;1.98;;;13.30;85.70;;;;;;4994678;28;20030;-78
2023/10/16 15:35:37;;;;;;;3.47;1.85;;;13.30;85.40;;;;;;4995485;28;20121;-78
2023/10/16 15:38:04;;;;;;;2.65;2.10;;;13.30;85.10;;;;;;4994681;28;20065;-78
2023/10/16 15:40:31;;;;;;;5.03;2.35;;;13.30;84.90;;;;;;5010378;28;20038;-78
2023/10/16 15:42:57;;;;;;;2.80;2.33;;;13.30;84.90;;;;;;4994963;28;20069;-77
2023/10/16 15:45:37;;;;;;;2.60;2.00;;;13.30;84.90;;;;;;5009520;28;20166;-78
2023/10/16 15:48:07;;;;;;;2.97;1.80;;;13.30;84.70;;;;;;4993149;28;20060;-78
2023/10/16 15:50:37;;;;;;;4.72;2.28;;;13.30;84.40;;;;;;4995612;28;20042;-77
2023/10/16 15:53:07;;;;;;;2.53;1.83;;;13.20;84.20;;;;;;4995337;28;20139;-78
2023/10/16 15:55:34;;;;;;;2.67;1.63;;;13.20;84.00;;;;;;4987897;28;20049;-78
2023/10/16 15:58:00;;;;;;;3.67;1.98;;;13.20;84.00;;;;;;4994956;28;20033;-76
2023/10/16 16:00:31;;;;;;;2.80;1.83;;;13.20;83.80;;;;;;5009895;28;20104;-77
2023/10/16 16:02:58;;;;;;;3.65;2.10;;;13.20;83.80;;;;;;4995083;28;20429;-78
2023/10/16 16:05:27;;;;;;;3.08;2.10;;;13.20;83.70;;;;;;4995105;28;20061;-78
2023/10/16 16:07:59;;;;;;;4.65;2.20;;;13.20;83.70;;;;;;5026404;28;20092;-78
2023/10/16 16:10:26;;;;;;;2.85;1.60;;;13.20;83.60;;;;;;4993282;28;20045;-78
2023/10/16 16:12:53;;;;;;;3.05;1.70;;;13.10;83.60;;;;;;4982860;28;20409;-80
2023/10/16 16:15:24;;;;;;;2.63;1.90;;;13.20;85.00;;;;;;4994032;28;20042;-80